Jadwin, Missouri
Current Conditions -  °F | °C
As of 4:58 PM on Tuesday 25 Nov 2014 (Local Time) from KTBN Reporting Station
Clear Clear  
Wind Chill: 39°   Ceiling: Unl
Heat Index: 39°   Visibility: 10mi
Dew Point: 16°   Wind: 2mph
Humidity: 40%   Direction: 270°W
Pressure: 30.13"   Gusts: NA
Location:  37.49°N, 91.57°W
Report Text: KTBN 252258Z AUTO 27002KT 10SM CLR 04/M09 A3013 RMK AO2 SLP216 T00381089
Loading
Personal Weather Stations






























Interactive Weather Map New forecast layout! Learn more

10-Day Weather Forecast

Advertisements
Track Severe Weather on mobile